Главная страница
METAR-TAF:

METAR-TAF

Аэропорты :

Питерборо, Онтарио, Канада

широта: 44-14N, долгота: 078-22W, высота над уровнем моря: 191 м

Текущие метеонаблюдения

Эта сводка был подготовлена 22 минут назад, в 00:00 UTC
Ветер 13 Узел от западно-северо-западный
Температура 21°C
Влажность 43%
Давление 1018 hPa
Видимость: 14.5 км
ясное небо

METAR: CYPQ 240000Z AUTO 30013KT 9SM CLR 21/08 A3005 RMK SLP179 DENSITY ALT 1300FT

Время: 20:22 (00:22 UTC)

Прогноз

Эта сводка был подготовлена 4 часа и 44 минут назад, в 19:38 UTC
Прогноз действительный с 23-го 20 UTC до 24-го 02 UTC
Ветер 12 Узел от северо-западный с порывами до 22 Узел
Видимость: 10 км
ясное небо
изменения
С 24-го 00 UTC до 24-го 02 UTC
Ветер 3 Узел переменных направлений

TAF: CYPQ 231938Z 2320/2402 32012G22KT P6SM SKC BECMG 2400/2402 VRB03KT RMK FCST BASED ON AUTO OBS. NXT FCST WILL BE ISSUED AT 240945Z

Метеонаблюдения и прогнозы для более 4000 аэропортов (сводки METAR и TAF).

Имеющиеся станции представлены на карте желтыми и красными точками.

Чтобы увидеть название станции, наведите на нее мышь.

Затем щелкните, чтобы увидеть метеонаблюдения и метеопрогнозы.

Управление картой: чтобы увеличить масштаб, щелкните зеленые кнопки с черным крестиком; чтобы уменьшить масштаб, щелкните зеленую кнопку с тире; для просмотра соседних карт щелкайте зеленые стрелки.


METAR-TAF: